Time;durP1;ratioP1;P1;durP2;ratioP2;P2;SDS_P1;SDS_P2;PMS_P1;PMS_P2;Temp;Humidity;BMP_temperature;BMP_pressure;BME280_temperature;BME280_humidity;BME280_pressure;Samples;Min_cycle;Max_cycle;Signal;HPM_P1;HPM_P2
2021/11/16 00:02:06;;;;;;;74.00;27.08;;;;;;;;;;5029435;28;20025;-70
2021/11/16 00:04:32;;;;;;;70.43;25.58;;;;;;;;;;5030120;28;20702;-70
2021/11/16 00:06:58;;;;;;;71.15;28.73;;;;;;;;;;5028770;28;20470;-70
2021/11/16 00:09:24;;;;;;;75.47;29.00;;;;;;;;;;5027694;28;20034;-70
2021/11/16 00:11:50;;;;;;;72.00;26.38;;;;;;;;;;5021174;28;20429;-70
2021/11/16 00:14:17;;;;;;;73.60;28.35;;;;;;;;;;5030706;28;20049;-70
2021/11/16 00:16:44;;;;;;;69.97;27.17;;;;;;;;;;5020313;28;20033;-70
2021/11/16 00:19:14;;;;;;;69.55;27.98;;;;;;;;;;5018879;28;20354;-70
2021/11/16 00:21:41;;;;;;;71.75;26.98;;;;;;;;;;5030242;28;20029;-70
2021/11/16 00:24:12;;;;;;;73.70;27.63;;;;;;;;;;5024338;28;20092;-70
2021/11/16 00:26:38;;;;;;;75.20;29.02;;;;;;;;;;5025070;28;20092;-70
2021/11/16 00:29:05;;;;;;;72.80;26.27;;;;;;;;;;5019072;28;20478;-70
2021/11/16 00:31:34;;;;;;;78.20;28.48;;;;;;;;;;5020523;28;20041;-70
2021/11/16 00:34:00;;;;;;;68.00;28.27;;;;;;;;;;5030234;28;20021;-70
2021/11/16 00:36:26;;;;;;;80.38;28.48;;;;;;;;;;5022675;28;20036;-69
2021/11/16 00:38:52;;;;;;;74.40;27.45;;;;;;;;;;5025581;28;20030;-69
2021/11/16 00:41:18;;;;;;;75.22;29.10;;;;;;;;;;5023697;28;20033;-70
2021/11/16 00:43:44;;;;;;;75.25;28.85;;;;;;;;;;5026602;28;20022;-70
2021/11/16 00:46:10;;;;;;;72.18;28.98;;;;;;;;;;5030349;28;20466;-70
2021/11/16 00:48:38;;;;;;;76.25;30.98;;;;;;;;;;5022532;28;20406;-70
2021/11/16 00:51:04;;;;;;;74.65;29.77;;;;;;;;;;5030487;28;20029;-70
2021/11/16 00:53:33;;;;;;;63.97;23.35;;;;;;;;;;5027488;28;20037;-70
2021/11/16 00:56:00;;;;;;;83.30;27.83;;;;;;;;;;5026668;28;20028;-70
2021/11/16 00:58:26;;;;;;;79.32;26.30;;;;;;;;;;5026820;28;20545;-70
2021/11/16 01:00:53;;;;;;;69.95;27.73;;;;;;;;;;5028952;28;20034;-70
2021/11/16 01:03:20;;;;;;;64.65;26.30;;;;;;;;;;5031676;28;20032;-70
2021/11/16 01:05:46;;;;;;;75.72;27.95;;;;;;;;;;5027485;28;20028;-70
2021/11/16 01:08:12;;;;;;;69.85;28.50;;;;;;;;;;5029696;28;20021;-70
2021/11/16 01:10:39;;;;;;;70.50;26.13;;;;;;;;;;5029561;28;20033;-70
2021/11/16 01:13:05;;;;;;;67.47;23.75;;;;;;;;;;5024838;28;20120;-70
2021/11/16 01:15:34;;;;;;;71.60;27.42;;;;;;;;;;5025490;28;20108;-70
2021/11/16 01:18:00;;;;;;;68.70;26.52;;;;;;;;;;5025710;28;20426;-70
2021/11/16 01:20:26;;;;;;;62.47;24.30;;;;;;;;;;5028119;28;20037;-70
2021/11/16 01:22:54;;;;;;;70.15;25.88;;;;;;;;;;5016977;28;20060;-70
2021/11/16 01:25:20;;;;;;;73.05;25.30;;;;;;;;;;5014380;28;20030;-70
2021/11/16 01:27:46;;;;;;;66.65;24.85;;;;;;;;;;5016978;28;20026;-70
2021/11/16 01:30:14;;;;;;;66.07;26.38;;;;;;;;;;5024458;28;20083;-70
2021/11/16 01:32:45;;;;;;;68.57;25.35;;;;;;;;;;5021545;28;20033;-70
2021/11/16 01:35:11;;;;;;;67.13;23.88;;;;;;;;;;5024140;28;20100;-70
2021/11/16 01:37:38;;;;;;;64.88;26.45;;;;;;;;;;5026202;28;20436;-70
2021/11/16 01:40:07;;;;;;;65.95;24.75;;;;;;;;;;5030049;28;20078;-70
2021/11/16 01:42:33;;;;;;;69.43;25.50;;;;;;;;;;5024260;28;20402;-70
2021/11/16 01:44:59;;;;;;;67.65;24.00;;;;;;;;;;5029698;28;20022;-70
2021/11/16 01:47:26;;;;;;;66.70;24.92;;;;;;;;;;5029016;28;20033;-70
2021/11/16 01:49:52;;;;;;;58.30;25.65;;;;;;;;;;5033578;28;20030;-70
2021/11/16 01:52:18;;;;;;;64.28;24.98;;;;;;;;;;5021075;28;20394;-69
2021/11/16 01:54:44;;;;;;;68.38;26.95;;;;;;;;;;5032781;28;20029;-70
2021/11/16 01:57:10;;;;;;;61.85;24.08;;;;;;;;;;5032064;28;20025;-70
2021/11/16 01:59:36;;;;;;;70.90;26.42;;;;;;;;;;5031246;28;20037;-70
2021/11/16 02:02:03;;;;;;;76.22;27.17;;;;;;;;;;5027301;28;20029;-70
2021/11/16 02:04:29;;;;;;;64.53;27.05;;;;;;;;;;5031464;28;20017;-70
2021/11/16 02:06:55;;;;;;;69.25;25.75;;;;;;;;;;5025223;28;20024;-70
2021/11/16 02:09:21;;;;;;;59.38;26.48;;;;;;;;;;5032086;28;20040;-70
2021/11/16 02:11:47;;;;;;;67.93;25.55;;;;;;;;;;5030808;28;20474;-70
2021/11/16 02:14:14;;;;;;;66.80;24.08;;;;;;;;;;5032957;28;20048;-70
2021/11/16 02:16:41;;;;;;;64.20;26.20;;;;;;;;;;5032247;28;20474;-70
2021/11/16 02:19:09;;;;;;;63.72;24.05;;;;;;;;;;5026050;28;20485;-70
2021/11/16 02:21:36;;;;;;;58.30;23.60;;;;;;;;;;5026202;28;20037;-70
2021/11/16 02:24:03;;;;;;;61.13;24.65;;;;;;;;;;5026179;28;20071;-70
2021/11/16 02:26:30;;;;;;;64.90;25.42;;;;;;;;;;5030742;28;20025;-70
2021/11/16 02:28:56;;;;;;;69.00;24.67;;;;;;;;;;5029681;28;20033;-70
2021/11/16 02:31:22;;;;;;;57.33;22.35;;;;;;;;;;5031894;28;20116;-70
2021/11/16 02:33:48;;;;;;;67.35;23.75;;;;;;;;;;5030041;28;20033;-70
2021/11/16 02:36:14;;;;;;;60.55;23.33;;;;;;;;;;5027973;28;20033;-70
2021/11/16 02:38:41;;;;;;;67.68;26.88;;;;;;;;;;5029241;28;20036;-70
2021/11/16 02:41:07;;;;;;;64.20;21.33;;;;;;;;;;5031396;28;20040;-70
2021/11/16 02:43:34;;;;;;;61.13;23.85;;;;;;;;;;5029623;28;20509;-70
2021/11/16 02:46:02;;;;;;;59.53;23.42;;;;;;;;;;5025753;28;20838;-70
2021/11/16 02:48:28;;;;;;;59.90;25.10;;;;;;;;;;5024266;28;20044;-71
2021/11/16 02:50:58;;;;;;;69.32;24.60;;;;;;;;;;5027097;28;20478;-70
2021/11/16 02:53:24;;;;;;;68.78;25.55;;;;;;;;;;5028286;28;20030;-70
2021/11/16 02:55:51;;;;;;;70.95;25.83;;;;;;;;;;5028832;28;20048;-70
2021/11/16 02:58:17;;;;;;;68.80;27.65;;;;;;;;;;5029542;28;20097;-71
2021/11/16 03:00:46;;;;;;;73.68;25.63;;;;;;;;;;5029431;28;20021;-71
2021/11/16 03:03:13;;;;;;;74.53;27.40;;;;;;;;;;5030898;28;20029;-70
2021/11/16 03:05:38;;;;;;;70.32;25.40;;;;;;;;;;5026066;28;20406;-70
2021/11/16 03:08:12;;;;;;;75.57;27.00;;;;;;;;;;5024087;28;20018;-70
2021/11/16 03:10:38;;;;;;;73.28;25.33;;;;;;;;;;5028582;28;20030;-70
2021/11/16 03:13:04;;;;;;;67.60;23.98;;;;;;;;;;5023205;28;20025;-70
2021/11/16 03:15:30;;;;;;;64.50;24.58;;;;;;;;;;5026494;28;20033;-70
2021/11/16 03:17:56;;;;;;;70.50;25.55;;;;;;;;;;5020239;28;20392;-70
2021/11/16 03:20:23;;;;;;;65.30;27.70;;;;;;;;;;5021858;28;20033;-70
2021/11/16 03:22:52;;;;;;;76.88;25.42;;;;;;;;;;5030315;28;20021;-70
2021/11/16 03:25:25;;;;;;;67.05;25.17;;;;;;;;;;5025235;28;20113;-70
2021/11/16 03:27:57;;;;;;;64.80;23.83;;;;;;;;;;5026653;28;20014;-70
2021/11/16 03:30:23;;;;;;;67.97;24.67;;;;;;;;;;5028045;28;20021;-70
2021/11/16 03:32:49;;;;;;;70.32;26.63;;;;;;;;;;5030788;28;20037;-70
2021/11/16 03:35:15;;;;;;;68.80;23.23;;;;;;;;;;5031180;28;20029;-70
2021/11/16 03:37:46;;;;;;;81.47;28.73;;;;;;;;;;5028021;28;20025;-70
2021/11/16 03:40:14;;;;;;;65.47;24.00;;;;;;;;;;5030541;28;20033;-70
2021/11/16 03:42:41;;;;;;;68.95;25.45;;;;;;;;;;5028608;28;20025;-70
2021/11/16 03:45:08;;;;;;;69.65;24.83;;;;;;;;;;5031144;28;20036;-70
2021/11/16 03:47:34;;;;;;;69.65;27.02;;;;;;;;;;5029970;28;20104;-71
2021/11/16 03:50:00;;;;;;;75.20;28.15;;;;;;;;;;5027206;28;20026;-71
2021/11/16 03:52:26;;;;;;;65.25;25.00;;;;;;;;;;5030901;28;20033;-70
2021/11/16 03:54:53;;;;;;;71.03;26.33;;;;;;;;;;5029986;28;20041;-70
2021/11/16 03:57:20;;;;;;;73.18;26.05;;;;;;;;;;5031554;28;20041;-71
2021/11/16 03:59:46;;;;;;;73.20;27.15;;;;;;;;;;5028759;28;20528;-70
2021/11/16 04:02:12;;;;;;;64.53;23.65;;;;;;;;;;5025219;28;20356;-70
2021/11/16 04:04:40;;;;;;;69.57;27.77;;;;;;;;;;5017638;28;20061;-70
2021/11/16 04:07:06;;;;;;;61.97;22.25;;;;;;;;;;5026072;28;20025;-70
2021/11/16 04:09:32;;;;;;;65.35;24.40;;;;;;;;;;5022647;28;20108;-70
2021/11/16 04:11:58;;;;;;;66.65;23.08;;;;;;;;;;5025908;28;20558;-70
2021/11/16 04:14:24;;;;;;;68.20;23.95;;;;;;;;;;5022009;28;20104;-71
2021/11/16 04:16:52;;;;;;;58.95;21.98;;;;;;;;;;5028941;28;20100;-69
2021/11/16 04:19:18;;;;;;;67.80;24.88;;;;;;;;;;5030807;28;20018;-71
2021/11/16 04:21:44;;;;;;;63.90;23.85;;;;;;;;;;5027719;28;20080;-70
2021/11/16 04:24:10;;;;;;;62.28;22.63;;;;;;;;;;5023934;28;20022;-70
2021/11/16 04:26:35;;;;;;;70.93;23.40;;;;;;;;;;5029977;28;20028;-70
2021/11/16 04:29:03;;;;;;;62.22;25.15;;;;;;;;;;5029938;28;20025;-70
2021/11/16 04:31:29;;;;;;;64.13;23.88;;;;;;;;;;5040558;28;20042;-70
2021/11/16 04:34:02;;;;;;;63.45;23.83;;;;;;;;;;5026354;28;20036;-70
2021/11/16 04:36:28;;;;;;;72.72;25.08;;;;;;;;;;5022134;28;20339;-70
2021/11/16 04:38:54;;;;;;;65.75;24.42;;;;;;;;;;5029727;28;20534;-70
2021/11/16 04:41:20;;;;;;;76.90;28.13;;;;;;;;;;5029517;28;20040;-70
2021/11/16 04:43:46;;;;;;;69.95;26.15;;;;;;;;;;5027000;28;20110;-70
2021/11/16 04:46:16;;;;;;;65.63;26.05;;;;;;;;;;5029801;28;20057;-69
2021/11/16 04:48:51;;;;;;;66.43;25.58;;;;;;;;;;5028431;28;20072;-70
2021/11/16 05:04:42;;;;;;;71.20;26.08;;;;;;;;;;5014804;28;20064;-70
2021/11/16 05:07:15;;;;;;;65.15;24.10;;;;;;;;;;5018126;28;20018;-70
2021/11/16 05:09:45;;;;;;;67.97;26.55;;;;;;;;;;5027461;28;20026;-70
2021/11/16 05:12:11;;;;;;;62.50;22.98;;;;;;;;;;5024680;28;20033;-69
2021/11/16 05:14:37;;;;;;;63.50;23.73;;;;;;;;;;5017717;28;20018;-70
2021/11/16 05:17:03;;;;;;;75.80;24.40;;;;;;;;;;5019452;28;20467;-70
2021/11/16 05:19:29;;;;;;;68.03;24.65;;;;;;;;;;5025486;28;20025;-70
2021/11/16 05:21:55;;;;;;;63.40;23.58;;;;;;;;;;5028618;28;20042;-70
2021/11/16 05:24:24;;;;;;;61.50;22.35;;;;;;;;;;5026127;28;20538;-70
2021/11/16 05:26:50;;;;;;;70.57;25.63;;;;;;;;;;5033570;28;20049;-71
2021/11/16 05:29:16;;;;;;;64.53;22.45;;;;;;;;;;5029020;28;20478;-70
2021/11/16 05:31:42;;;;;;;58.88;23.85;;;;;;;;;;5033077;28;20045;-71
2021/11/16 05:34:08;;;;;;;61.85;23.52;;;;;;;;;;5029038;28;20026;-70
2021/11/16 05:36:34;;;;;;;68.32;26.35;;;;;;;;;;5030587;28;20036;-70
2021/11/16 05:39:00;;;;;;;61.42;22.55;;;;;;;;;;5029280;28;20037;-70
2021/11/16 05:41:26;;;;;;;68.25;24.10;;;;;;;;;;5028523;28;20123;-71
2021/11/16 05:43:52;;;;;;;64.70;24.35;;;;;;;;;;5029180;28;20497;-72
2021/11/16 05:46:22;;;;;;;63.80;25.00;;;;;;;;;;5030046;28;20029;-69
2021/11/16 05:48:49;;;;;;;65.75;24.67;;;;;;;;;;5028654;28;20032;-69
2021/11/16 05:51:18;;;;;;;54.17;21.65;;;;;;;;;;5030242;28;20079;-69
2021/11/16 05:53:46;;;;;;;63.75;22.90;;;;;;;;;;5032328;28;20228;-69
2021/11/16 05:56:12;;;;;;;70.85;24.45;;;;;;;;;;5027760;28;20410;-69
2021/11/16 05:58:42;;;;;;;63.03;22.75;;;;;;;;;;5028442;28;20025;-69
2021/11/16 06:01:08;;;;;;;68.05;24.08;;;;;;;;;;5029473;28;20022;-69
2021/11/16 06:03:34;;;;;;;66.10;23.40;;;;;;;;;;5029501;28;20641;-69
2021/11/16 06:06:00;;;;;;;57.20;22.88;;;;;;;;;;5024549;28;20108;-69
2021/11/16 06:08:27;;;;;;;64.78;24.48;;;;;;;;;;5030349;28;20125;-69
2021/11/16 06:10:53;;;;;;;62.65;23.55;;;;;;;;;;5026940;28;20034;-69
2021/11/16 06:13:19;;;;;;;62.08;23.20;;;;;;;;;;5027203;28;20039;-69
2021/11/16 06:15:45;;;;;;;60.70;24.13;;;;;;;;;;5030647;28;20030;-69
2021/11/16 06:18:12;;;;;;;66.30;23.13;;;;;;;;;;5029094;28;20397;-69
2021/11/16 06:20:39;;;;;;;58.85;23.85;;;;;;;;;;5029493;28;20029;-72
2021/11/16 06:23:05;;;;;;;71.57;25.83;;;;;;;;;;5029509;28;20109;-69
2021/11/16 06:25:32;;;;;;;64.25;25.40;;;;;;;;;;5028557;28;20028;-70
2021/11/16 06:27:57;;;;;;;66.47;23.83;;;;;;;;;;5026782;28;20486;-69
2021/11/16 06:30:23;;;;;;;66.60;23.10;;;;;;;;;;5028767;28;20037;-69
2021/11/16 06:32:49;;;;;;;55.65;22.95;;;;;;;;;;5028827;28;20029;-69
2021/11/16 06:35:17;;;;;;;62.58;23.15;;;;;;;;;;5027968;28;20038;-69
2021/11/16 06:37:43;;;;;;;61.67;24.77;;;;;;;;;;5027536;28;20057;-70
2021/11/16 06:40:09;;;;;;;65.68;25.75;;;;;;;;;;5026000;28;20025;-69
2021/11/16 06:42:36;;;;;;;59.80;23.95;;;;;;;;;;5028833;28;20033;-71
2021/11/16 06:45:02;;;;;;;66.28;23.45;;;;;;;;;;5028366;28;20391;-69
2021/11/16 06:47:28;;;;;;;63.17;23.73;;;;;;;;;;5028208;28;20546;-69
2021/11/16 06:49:54;;;;;;;62.75;25.05;;;;;;;;;;5029779;28;20037;-71
2021/11/16 06:52:21;;;;;;;58.72;24.17;;;;;;;;;;5031114;28;20025;-70
2021/11/16 06:54:47;;;;;;;69.35;25.67;;;;;;;;;;5031282;28;20370;-70
2021/11/16 06:57:13;;;;;;;57.13;22.33;;;;;;;;;;5031042;28;20031;-70
2021/11/16 06:59:40;;;;;;;67.20;24.08;;;;;;;;;;5027213;28;20037;-70
2021/11/16 07:02:06;;;;;;;66.93;24.58;;;;;;;;;;5030203;28;20088;-69
2021/11/16 07:04:40;;;;;;;66.05;24.23;;;;;;;;;;5030370;28;20040;-69
2021/11/16 07:07:07;;;;;;;68.38;24.10;;;;;;;;;;5023808;28;20029;-69
2021/11/16 07:09:35;;;;;;;58.50;23.20;;;;;;;;;;5025896;28;20498;-69
2021/11/16 07:12:01;;;;;;;72.82;24.58;;;;;;;;;;5029092;28;20021;-68
2021/11/16 07:14:30;;;;;;;79.43;25.67;;;;;;;;;;5029891;28;20089;-69
2021/11/16 07:16:56;;;;;;;74.53;26.48;;;;;;;;;;5031479;28;20051;-69
2021/11/16 07:19:59;;;;;;;72.63;24.90;;;;;;;;;;5030654;28;20474;-69
2021/11/16 07:22:26;;;;;;;67.82;24.52;;;;;;;;;;4992125;28;20025;-69
2021/11/16 07:24:54;;;;;;;68.70;25.02;;;;;;;;;;5026278;28;20056;-69
2021/11/16 07:27:22;;;;;;;64.93;25.15;;;;;;;;;;5028389;28;20087;-69
2021/11/16 07:29:50;;;;;;;74.82;26.27;;;;;;;;;;5030055;28;20364;-69
2021/11/16 07:32:18;;;;;;;72.65;25.85;;;;;;;;;;5023985;28;20109;-69
2021/11/16 07:34:45;;;;;;;73.40;26.13;;;;;;;;;;5030983;28;20056;-69
2021/11/16 07:37:17;;;;;;;63.13;23.00;;;;;;;;;;5026056;28;20029;-69
2021/11/16 07:39:52;;;;;;;65.40;24.55;;;;;;;;;;5024001;28;20025;-69
2021/11/16 07:42:18;;;;;;;74.47;25.25;;;;;;;;;;5031406;28;20100;-69
2021/11/16 07:45:04;;;;;;;62.45;23.10;;;;;;;;;;5027630;28;20040;-69
2021/11/16 07:47:36;;;;;;;68.10;23.00;;;;;;;;;;5025218;28;20096;-69
2021/11/16 07:50:02;;;;;;;66.00;23.90;;;;;;;;;;5027110;28;20041;-69
2021/11/16 07:52:28;;;;;;;55.83;22.08;;;;;;;;;;5027883;28;20111;-69
2021/11/16 07:54:54;;;;;;;77.68;24.02;;;;;;;;;;5029553;28;20044;-68
2021/11/16 07:57:20;;;;;;;68.63;23.55;;;;;;;;;;5027461;28;20037;-68
2021/11/16 07:59:52;;;;;;;61.97;22.80;;;;;;;;;;5021325;28;20033;-69
2021/11/16 08:02:28;;;;;;;65.95;23.38;;;;;;;;;;5026225;28;20108;-69
2021/11/16 08:05:07;;;;;;;70.35;23.98;;;;;;;;;;5030600;28;20022;-68
2021/11/16 08:07:49;;;;;;;74.68;27.15;;;;;;;;;;5026343;28;20018;-70
2021/11/16 08:10:23;;;;;;;70.18;24.52;;;;;;;;;;5029182;28;20462;-70
2021/11/16 08:12:51;;;;;;;72.18;24.90;;;;;;;;;;5028128;28;20486;-70
2021/11/16 08:15:17;;;;;;;71.90;26.25;;;;;;;;;;5023271;28;20033;-69
2021/11/16 08:17:44;;;;;;;67.95;24.88;;;;;;;;;;5023125;28;20038;-70
2021/11/16 08:20:13;;;;;;;74.18;25.23;;;;;;;;;;5029386;28;20500;-70
2021/11/16 08:22:39;;;;;;;69.03;24.00;;;;;;;;;;5022480;28;20451;-70
2021/11/16 08:25:06;;;;;;;64.25;24.05;;;;;;;;;;5024312;28;20030;-70
2021/11/16 08:27:36;;;;;;;65.57;23.10;;;;;;;;;;5029209;28;20036;-70
2021/11/16 08:30:07;;;;;;;78.68;25.80;;;;;;;;;;5025072;28;20502;-70
2021/11/16 08:32:34;;;;;;;60.65;23.52;;;;;;;;;;5041384;22;20017;-76
2021/11/16 08:35:01;;;;;;;73.00;24.40;;;;;;;;;;5021397;28;20058;-76
2021/11/16 08:37:36;;;;;;;67.28;26.40;;;;;;;;;;5022593;28;20030;-76
2021/11/16 08:40:04;;;;;;;65.43;22.73;;;;;;;;;;5028767;28;20041;-76
2021/11/16 08:42:31;;;;;;;67.97;24.17;;;;;;;;;;5039003;28;20033;-76
2021/11/16 08:45:03;;;;;;;69.53;23.30;;;;;;;;;;5029405;28;20029;-76
2021/11/16 08:47:38;;;;;;;69.40;24.30;;;;;;;;;;5027155;28;20033;-76
2021/11/16 08:50:06;;;;;;;64.63;23.50;;;;;;;;;;5033762;28;20033;-76
2021/11/16 08:52:32;;;;;;;68.43;23.55;;;;;;;;;;5026422;28;20112;-75
2021/11/16 08:54:58;;;;;;;70.78;26.13;;;;;;;;;;5022522;28;20029;-76
2021/11/16 08:57:25;;;;;;;71.45;25.83;;;;;;;;;;5024989;28;20026;-76
2021/11/16 08:59:52;;;;;;;70.78;26.38;;;;;;;;;;5025894;28;20025;-76
2021/11/16 09:02:19;;;;;;;68.07;23.85;;;;;;;;;;5027935;28;20029;-76
2021/11/16 09:04:46;;;;;;;65.30;24.55;;;;;;;;;;5023783;28;20455;-76
2021/11/16 09:07:16;;;;;;;68.78;25.13;;;;;;;;;;5032417;28;20028;-75
2021/11/16 09:09:52;;;;;;;72.47;25.08;;;;;;;;;;5029216;28;20164;-77
2021/11/16 09:12:18;;;;;;;64.43;23.83;;;;;;;;;;5028247;28;20161;-76
2021/11/16 09:14:55;;;;;;;64.05;22.30;;;;;;;;;;5031704;28;20017;-76
2021/11/16 09:17:21;;;;;;;72.15;22.83;;;;;;;;;;5030324;28;20030;-75
2021/11/16 09:19:47;;;;;;;64.10;24.25;;;;;;;;;;5027658;28;20025;-75
2021/11/16 09:22:17;;;;;;;69.97;25.30;;;;;;;;;;5026438;28;20402;-75
2021/11/16 09:24:44;;;;;;;;;;;;;;;;;;5031342;28;20394;-75
2021/11/16 09:27:34;;;;;;;65.68;24.20;;;;;;;;;;5030019;28;19905;-74
2021/11/16 09:29:59;;;;;;;66.22;24.15;;;;;;;;;;5028276;28;20112;-75
2021/11/16 09:32:26;;;;;;;72.13;25.05;;;;;;;;;;5030963;28;20144;-76
2021/11/16 09:34:54;;;;;;;68.45;22.75;;;;;;;;;;5030956;28;20025;-74
2021/11/16 09:37:22;;;;;;;65.60;23.55;;;;;;;;;;5030960;28;20057;-75
2021/11/16 09:39:59;;;;;;;67.15;22.73;;;;;;;;;;5026164;28;20036;-74
2021/11/16 09:42:30;;;;;;;73.15;23.08;;;;;;;;;;5026302;28;20021;-76
2021/11/16 09:45:07;;;;;;;69.60;25.50;;;;;;;;;;5028111;28;20072;-74
2021/11/16 09:47:35;;;;;;;60.05;22.98;;;;;;;;;;5041636;28;20087;-75
2021/11/16 09:50:00;;;;;;;67.78;25.75;;;;;;;;;;5026068;28;20036;-75
2021/11/16 09:52:32;;;;;;;70.10;23.77;;;;;;;;;;5024712;28;20021;-72
2021/11/16 09:55:01;;;;;;;73.55;24.27;;;;;;;;;;5035981;28;20375;-76
2021/11/16 09:57:35;;;;;;;64.13;23.55;;;;;;;;;;5047775;28;20490;-77
2021/11/16 10:00:09;;;;;;;68.22;24.90;;;;;;;;;;5023259;28;20029;-73
2021/11/16 10:02:36;;;;;;;70.53;26.48;;;;;;;;;;5032216;28;20033;-74
2021/11/16 10:05:07;;;;;;;72.93;24.92;;;;;;;;;;5043553;28;20073;-74
2021/11/16 10:07:34;;;;;;;72.45;24.85;;;;;;;;;;5022604;28;21699;-74
2021/11/16 10:10:01;;;;;;;66.32;23.65;;;;;;;;;;5030157;28;20397;-74
2021/11/16 10:12:37;;;;;;;67.47;23.45;;;;;;;;;;5030868;28;20401;-75
2021/11/16 10:15:04;;;;;;;65.28;23.70;;;;;;;;;;5032727;28;20018;-75
2021/11/16 10:17:30;;;;;;;63.53;22.58;;;;;;;;;;5047199;28;20029;-75
2021/11/16 10:19:56;;;;;;;72.20;25.25;;;;;;;;;;5033023;28;20034;-76
2021/11/16 10:22:22;;;;;;;61.20;24.45;;;;;;;;;;5033325;28;20028;-75
2021/11/16 10:24:48;;;;;;;69.15;24.45;;;;;;;;;;5031116;28;20025;-75
2021/11/16 10:27:17;;;;;;;62.65;23.38;;;;;;;;;;5026970;28;20018;-76
2021/11/16 10:29:44;;;;;;;70.55;24.60;;;;;;;;;;5028147;28;20026;-75
2021/11/16 10:32:20;;;;;;;62.63;22.48;;;;;;;;;;5025441;28;20475;-76
2021/11/16 10:34:46;;;;;;;62.25;21.92;;;;;;;;;;5030404;28;20038;-76
2021/11/16 10:37:12;;;;;;;72.03;25.33;;;;;;;;;;5027397;28;20083;-75
2021/11/16 10:39:38;;;;;;;68.18;23.27;;;;;;;;;;5022892;28;20033;-75
2021/11/16 10:42:06;;;;;;;69.18;22.58;;;;;;;;;;5029494;28;20033;-75
2021/11/16 10:44:36;;;;;;;60.40;22.48;;;;;;;;;;5026340;28;20025;-76
2021/11/16 10:47:03;;;;;;;64.60;22.58;;;;;;;;;;5026546;28;20018;-76
2021/11/16 10:49:30;;;;;;;64.05;23.45;;;;;;;;;;5031881;28;20513;-76
2021/11/16 10:51:56;;;;;;;67.13;23.05;;;;;;;;;;5027412;28;20064;-75
2021/11/16 10:54:22;;;;;;;62.75;23.75;;;;;;;;;;5028954;28;20130;-76
2021/11/16 10:56:56;;;;;;;71.05;21.83;;;;;;;;;;5031941;28;20529;-76
2021/11/16 10:59:28;;;;;;;69.82;24.67;;;;;;;;;;5029330;28;20113;-76
2021/11/16 11:01:55;;;;;;;64.57;24.80;;;;;;;;;;5029340;28;20049;-76
2021/11/16 11:04:22;;;;;;;63.05;23.77;;;;;;;;;;5046089;28;20079;-76
2021/11/16 11:06:49;;;;;;;58.85;20.77;;;;;;;;;;5030162;28;20017;-76
2021/11/16 11:09:16;;;;;;;70.13;24.42;;;;;;;;;;5031975;28;20025;-75
2021/11/16 11:11:43;;;;;;;70.03;21.77;;;;;;;;;;5031126;28;20497;-75
2021/11/16 11:14:09;;;;;;;57.28;21.27;;;;;;;;;;5046976;28;20090;-76
2021/11/16 11:16:37;;;;;;;58.53;22.50;;;;;;;;;;5029706;28;20037;-76
2021/11/16 11:19:03;;;;;;;53.90;20.48;;;;;;;;;;5041500;28;20040;-75
2021/11/16 11:21:29;;;;;;;61.35;21.77;;;;;;;;;;5020791;28;20398;-77
2021/11/16 11:23:59;;;;;;;56.85;21.20;;;;;;;;;;5018840;28;20030;-76
2021/11/16 11:26:47;;;;;;;67.85;22.58;;;;;;;;;;5023511;28;20382;-77
2021/11/16 11:29:19;;;;;;;57.53;23.40;;;;;;;;;;5021081;28;20120;-76
2021/11/16 11:31:47;;;;;;;58.35;21.77;;;;;;;;;;5016764;28;20049;-76
2021/11/16 11:34:13;;;;;;;59.28;21.50;;;;;;;;;;5022072;28;20072;-76
2021/11/16 11:36:40;;;;;;;59.50;23.05;;;;;;;;;;5022353;28;20033;-75
2021/11/16 11:39:16;;;;;;;66.40;22.63;;;;;;;;;;5038808;28;20037;-77
2021/11/16 11:41:56;;;;;;;59.58;23.27;;;;;;;;;;5021194;28;20479;-76
2021/11/16 11:44:23;;;;;;;62.22;21.17;;;;;;;;;;5019078;28;20505;-76
2021/11/16 11:46:55;;;;;;;60.33;21.08;;;;;;;;;;5027101;28;20030;-76
2021/11/16 11:49:22;;;;;;;66.00;23.65;;;;;;;;;;5019659;28;20014;-76
2021/11/16 11:51:48;;;;;;;62.47;23.52;;;;;;;;;;5025611;28;20045;-76
2021/11/16 11:54:14;;;;;;;72.75;23.10;;;;;;;;;;5017638;28;20038;-76
2021/11/16 11:56:40;;;;;;;65.20;23.13;;;;;;;;;;5019709;28;20038;-76
2021/11/16 11:59:06;;;;;;;62.72;23.95;;;;;;;;;;5018657;28;20021;-76
2021/11/16 12:01:33;;;;;;;64.82;23.30;;;;;;;;;;5042505;28;20073;-76
2021/11/16 12:03:59;;;;;;;67.38;24.25;;;;;;;;;;5044858;28;20029;-76
2021/11/16 12:06:25;;;;;;;68.50;23.88;;;;;;;;;;5018906;28;20029;-75
2021/11/16 12:08:52;;;;;;;69.93;22.70;;;;;;;;;;5029035;28;20025;-75
2021/11/16 12:11:19;;;;;;;67.38;24.17;;;;;;;;;;5026247;28;20034;-75
2021/11/16 12:13:46;;;;;;;65.50;23.58;;;;;;;;;;5024439;28;20071;-75
2021/11/16 12:16:17;;;;;;;63.03;23.70;;;;;;;;;;5030248;28;20416;-74
2021/11/16 12:18:45;;;;;;;64.72;20.13;;;;;;;;;;5022152;28;20038;-76
2021/11/16 12:21:31;;;;;;;57.70;21.10;;;;;;;;;;5038037;28;20075;-76
2021/11/16 12:23:58;;;;;;;59.65;20.42;;;;;;;;;;5024112;28;20036;-76
2021/11/16 12:26:26;;;;;;;56.92;21.33;;;;;;;;;;5020621;28;20044;-76
2021/11/16 12:28:52;;;;;;;55.60;21.35;;;;;;;;;;5024275;28;20036;-77
2021/11/16 12:31:28;;;;;;;56.33;19.50;;;;;;;;;;5023633;28;20037;-76
2021/11/16 12:33:56;;;;;;;58.55;19.70;;;;;;;;;;5028561;28;20068;-76
2021/11/16 12:36:28;;;;;;;59.33;20.27;;;;;;;;;;5021104;28;20491;-76
2021/11/16 12:38:54;;;;;;;52.78;20.70;;;;;;;;;;5025966;28;20052;-76
2021/11/16 12:41:35;;;;;;;61.53;23.35;;;;;;;;;;5023911;28;20132;-76
2021/11/16 12:44:03;;;;;;;62.55;22.30;;;;;;;;;;5016043;28;20037;-76
2021/11/16 12:46:33;;;;;;;62.83;20.63;;;;;;;;;;5029277;28;20023;-76
2021/11/16 12:48:59;;;;;;;57.95;20.90;;;;;;;;;;5023107;28;20025;-76
2021/11/16 12:51:31;;;;;;;63.83;21.58;;;;;;;;;;5029102;28;20140;-76
2021/11/16 12:53:59;;;;;;;54.67;20.08;;;;;;;;;;5028781;28;20552;-75
2021/11/16 12:56:46;;;;;;;52.35;19.98;;;;;;;;;;5029373;28;20041;-75
2021/11/16 12:59:16;;;;;;;59.92;19.65;;;;;;;;;;5022772;28;20116;-76
2021/11/16 13:01:47;;;;;;;52.58;21.05;;;;;;;;;;5028046;28;20041;-75
2021/11/16 13:04:15;;;;;;;61.85;19.27;;;;;;;;;;5023820;28;20654;-75
2021/11/16 13:06:42;;;;;;;56.92;19.55;;;;;;;;;;5023115;28;20036;-75
2021/11/16 13:09:09;;;;;;;51.67;19.80;;;;;;;;;;5024106;28;20383;-76
2021/11/16 13:11:46;;;;;;;56.15;19.13;;;;;;;;;;5023275;28;20041;-75
2021/11/16 13:14:13;;;;;;;55.03;19.63;;;;;;;;;;5024372;28;20033;-76
2021/11/16 13:16:39;;;;;;;57.40;20.35;;;;;;;;;;5021892;28;20036;-75
2021/11/16 13:19:06;;;;;;;61.90;22.33;;;;;;;;;;5027574;28;20079;-76
2021/11/16 13:21:39;;;;;;;57.05;20.25;;;;;;;;;;5024624;28;20018;-75
2021/11/16 13:24:07;;;;;;;56.10;20.90;;;;;;;;;;5026597;28;20105;-75
2021/11/16 13:26:35;;;;;;;55.30;20.17;;;;;;;;;;5021958;28;20020;-76
2021/11/16 13:29:20;;;;;;;52.13;19.55;;;;;;;;;;5025063;28;20014;-76
2021/11/16 13:31:54;;;;;;;54.28;18.50;;;;;;;;;;5024018;28;20055;-76
2021/11/16 13:34:30;;;;;;;69.50;21.67;;;;;;;;;;5018695;28;20038;-75
2021/11/16 13:36:57;;;;;;;60.10;22.27;;;;;;;;;;5027693;28;20486;-76
2021/11/16 13:39:31;;;;;;;61.03;21.77;;;;;;;;;;5021387;28;20661;-76
2021/11/16 13:42:16;;;;;;;56.60;22.40;;;;;;;;;;5025320;28;20033;-76
2021/11/16 13:44:45;;;;;;;59.80;20.35;;;;;;;;;;5023223;28;20030;-76
2021/11/16 13:47:15;;;;;;;53.33;20.48;;;;;;;;;;5026772;28;20021;-75
2021/11/16 13:49:52;;;;;;;61.08;22.08;;;;;;;;;;5020112;28;20018;-76
2021/11/16 13:52:21;;;;;;;54.20;19.80;;;;;;;;;;5023617;28;20399;-76
2021/11/16 13:54:50;;;;;;;51.55;18.65;;;;;;;;;;5032028;28;20030;-76
2021/11/16 13:57:17;;;;;;;59.72;20.02;;;;;;;;;;5032682;28;20037;-76
2021/11/16 13:59:43;;;;;;;56.53;21.52;;;;;;;;;;5032153;28;20109;-75
2021/11/16 14:02:11;;;;;;;61.78;20.17;;;;;;;;;;5048137;28;20036;-75
2021/11/16 14:04:37;;;;;;;57.28;19.55;;;;;;;;;;5028580;28;20021;-75
2021/11/16 14:07:09;;;;;;;50.22;18.13;;;;;;;;;;5022417;28;20018;-75
2021/11/16 14:09:35;;;;;;;52.88;19.58;;;;;;;;;;5031476;28;20386;-74
2021/11/16 14:12:01;;;;;;;47.50;17.98;;;;;;;;;;5031156;28;20160;-75
2021/11/16 14:14:28;;;;;;;55.83;18.08;;;;;;;;;;5031764;28;20108;-74
2021/11/16 14:16:55;;;;;;;57.75;20.30;;;;;;;;;;5029521;28;20393;-75
2021/11/16 14:19:21;;;;;;;43.00;18.60;;;;;;;;;;5047739;28;20030;-74
2021/11/16 14:21:50;;;;;;;46.17;17.38;;;;;;;;;;5024895;28;20024;-75
2021/11/16 14:24:25;;;;;;;54.83;19.15;;;;;;;;;;5028819;28;20029;-75
2021/11/16 14:26:50;;;;;;;55.53;18.48;;;;;;;;;;5028406;28;20027;-75
2021/11/16 14:29:17;;;;;;;56.25;20.90;;;;;;;;;;5029346;28;20017;-76
2021/11/16 14:31:43;;;;;;;53.33;18.40;;;;;;;;;;5021992;28;20038;-76
2021/11/16 14:34:11;;;;;;;51.35;18.95;;;;;;;;;;5025639;28;20044;-75
2021/11/16 14:36:39;;;;;;;56.70;21.38;;;;;;;;;;5024142;28;20056;-76
2021/11/16 14:39:12;;;;;;;57.10;19.15;;;;;;;;;;5030102;23;20132;-69